Time;durP1;ratioP1;P1;durP2;ratioP2;P2;SDS_P1;SDS_P2;PMS_P1;PMS_P2;Temp;Humidity;BMP_temperature;BMP_pressure;BME280_temperature;BME280_humidity;BME280_pressure;Samples;Min_cycle;Max_cycle;Signal;HPM_P1;HPM_P2
2022/11/10 00:00:46;;;;;;;14.75;10.93;;;;;;;;;;10269402;28;20068;-66
2022/11/10 00:06:06;;;;;;;15.05;11.77;;;;;;;;;;10278860;28;20072;-66
2022/11/10 00:11:23;;;;;;;13.65;11.82;;;;;;;;;;10280050;28;20072;-66
2022/11/10 00:22:16;;;;;;;14.57;12.60;;;;;;;;;;10275711;28;20084;-67
2022/11/10 00:27:33;;;;;;;19.48;13.43;;;;;;;;;;10257453;28;20044;-66
2022/11/10 00:32:49;;;;;;;13.40;11.40;;;;;;;;;;10246887;28;20042;-66
2022/11/10 00:38:07;;;;;;;20.27;11.25;;;;;;;;;;10251611;28;20133;-66
2022/11/10 00:43:24;;;;;;;18.38;11.82;;;;;;;;;;10236312;28;20519;-67
2022/11/10 00:48:42;;;;;;;17.63;12.20;;;;;;;;;;10273292;28;20482;-66
2022/11/10 00:54:01;;;;;;;18.15;12.27;;;;;;;;;;10272330;28;20462;-65
2022/11/10 00:59:18;;;;;;;15.02;13.52;;;;;;;;;;10281081;28;20064;-66
2022/11/10 01:04:34;;;;;;;13.98;12.55;;;;;;;;;;10281827;28;20472;-66
2022/11/10 01:09:52;;;;;;;24.25;19.23;;;;;;;;;;10275388;28;20049;-65
2022/11/10 01:15:09;;;;;;;26.52;16.35;;;;;;;;;;10275342;28;20506;-66
2022/11/10 01:20:26;;;;;;;18.02;15.88;;;;;;;;;;10271431;28;20057;-67
2022/11/10 01:25:44;;;;;;;27.17;18.45;;;;;;;;;;10255978;28;20510;-65
2022/11/10 01:31:02;;;;;;;23.08;17.48;;;;;;;;;;10263754;28;20037;-66
2022/11/10 01:36:19;;;;;;;20.45;15.13;;;;;;;;;;10263255;28;20085;-67
2022/11/10 01:41:37;;;;;;;16.38;12.77;;;;;;;;;;10252876;28;20507;-66
2022/11/10 01:46:54;;;;;;;16.17;13.27;;;;;;;;;;10243823;28;20057;-66
2022/11/10 01:52:13;;;;;;;17.20;13.55;;;;;;;;;;10266776;28;20517;-65
2022/11/10 01:57:31;;;;;;;18.45;13.18;;;;;;;;;;10272384;28;20088;-66
2022/11/10 02:02:50;;;;;;;17.77;13.52;;;;;;;;;;10266427;28;20076;-66
2022/11/10 02:08:07;;;;;;;18.13;13.98;;;;;;;;;;10267881;28;20541;-67
2022/11/10 02:13:26;;;;;;;16.13;13.13;;;;;;;;;;10268053;28;20081;-67
2022/11/10 02:18:42;;;;;;;16.42;13.63;;;;;;;;;;10271830;28;20081;-67
2022/11/10 02:24:01;;;;;;;19.08;13.50;;;;;;;;;;10249609;28;20052;-67
2022/11/10 02:29:18;;;;;;;21.15;16.35;;;;;;;;;;10243770;28;20668;-66
2022/11/10 02:34:35;;;;;;;17.08;13.30;;;;;;;;;;10263578;28;20482;-65
2022/11/10 02:39:53;;;;;;;15.63;12.77;;;;;;;;;;10272727;28;20086;-65
2022/11/10 02:45:10;;;;;;;17.23;12.82;;;;;;;;;;10277476;28;20072;-65
2022/11/10 02:50:26;;;;;;;16.08;14.25;;;;;;;;;;10281036;28;20073;-66
2022/11/10 02:55:45;;;;;;;18.40;15.55;;;;;;;;;;10267242;28;20088;-65
2022/11/10 03:01:04;;;;;;;17.98;14.75;;;;;;;;;;10269186;28;20072;-66
2022/11/10 03:06:21;;;;;;;18.35;15.90;;;;;;;;;;10278027;28;20072;-67
2022/11/10 03:11:40;;;;;;;29.60;19.30;;;;;;;;;;10276961;28;20482;-66
2022/11/10 03:16:56;;;;;;;24.98;19.27;;;;;;;;;;10277958;28;20073;-65
2022/11/10 03:22:13;;;;;;;25.73;19.20;;;;;;;;;;10260213;28;20077;-66
2022/11/10 03:27:32;;;;;;;22.08;18.90;;;;;;;;;;10251588;28;20046;-65
2022/11/10 03:32:48;;;;;;;21.90;18.15;;;;;;;;;;10255808;28;20041;-65
2022/11/10 03:38:05;;;;;;;22.00;16.13;;;;;;;;;;10272619;28;20084;-66
2022/11/10 03:43:23;;;;;;;26.33;18.50;;;;;;;;;;10276383;28;20077;-66
2022/11/10 03:48:41;;;;;;;32.83;26.70;;;;;;;;;;10276059;28;20044;-64
2022/11/10 03:53:58;;;;;;;19.13;16.38;;;;;;;;;;10274578;28;20061;-65
2022/11/10 03:59:16;;;;;;;20.70;16.42;;;;;;;;;;10284077;28;20076;-65
2022/11/10 04:10:07;;;;;;;18.98;14.85;;;;;;;;;;10265381;28;20080;-66
2022/11/10 04:15:43;;;;;;;19.23;14.23;;;;;;;;;;10273086;28;20076;-66
2022/11/10 04:21:01;;;;;;;15.85;13.98;;;;;;;;;;10279700;28;20459;-66
2022/11/10 04:26:31;;;;;;;19.10;14.48;;;;;;;;;;10279936;28;20077;-66
2022/11/10 04:31:49;;;;;;;18.85;14.68;;;;;;;;;;10279478;28;20076;-66
2022/11/10 04:37:06;;;;;;;18.25;13.82;;;;;;;;;;10277686;28;20168;-66
2022/11/10 04:42:23;;;;;;;16.90;13.68;;;;;;;;;;10276255;28;20084;-65
2022/11/10 04:47:41;;;;;;;19.17;13.25;;;;;;;;;;10276804;28;20080;-66
2022/11/10 04:52:57;;;;;;;17.90;14.50;;;;;;;;;;10275297;28;20081;-67
2022/11/10 04:58:14;;;;;;;16.80;13.00;;;;;;;;;;10272440;28;20092;-65
2022/11/10 05:03:33;;;;;;;16.08;13.48;;;;;;;;;;10270092;28;20072;-66
2022/11/10 05:08:50;;;;;;;18.25;12.75;;;;;;;;;;10273647;28;20060;-67
2022/11/10 05:14:07;;;;;;;20.42;17.40;;;;;;;;;;10276712;28;20064;-66
2022/11/10 05:19:25;;;;;;;16.67;14.68;;;;;;;;;;10282651;28;20093;-65
2022/11/10 05:24:41;;;;;;;19.10;12.52;;;;;;;;;;10272731;28;20506;-65
2022/11/10 05:29:58;;;;;;;18.25;13.95;;;;;;;;;;10275826;28;20085;-66
2022/11/10 05:35:16;;;;;;;15.45;12.63;;;;;;;;;;10276569;28;20073;-66
2022/11/10 05:40:33;;;;;;;17.67;12.55;;;;;;;;;;10267916;28;20080;-65
2022/11/10 05:45:50;;;;;;;16.73;14.20;;;;;;;;;;10269362;28;20486;-66
2022/11/10 05:51:08;;;;;;;17.40;12.90;;;;;;;;;;10259797;28;20474;-67
2022/11/10 05:56:25;;;;;;;17.45;13.90;;;;;;;;;;10270225;28;20084;-66
2022/11/10 06:01:42;;;;;;;17.23;14.65;;;;;;;;;;10263288;28;20072;-67
2022/11/10 06:07:00;;;;;;;17.65;15.20;;;;;;;;;;10273435;28;20085;-66
2022/11/10 06:12:18;;;;;;;21.88;19.33;;;;;;;;;;10268340;28;20068;-65
2022/11/10 06:17:37;;;;;;;19.90;15.52;;;;;;;;;;10248961;28;20073;-66
2022/11/10 06:22:59;;;;;;;22.85;16.85;;;;;;;;;;10262398;28;20626;-66
2022/11/10 06:28:16;;;;;;;31.02;21.92;;;;;;;;;;10276022;28;20088;-68
2022/11/10 06:33:33;;;;;;;25.40;18.20;;;;;;;;;;10279540;28;20100;-67
2022/11/10 06:38:50;;;;;;;31.20;27.83;;;;;;;;;;10276816;28;20084;-66
2022/11/10 06:44:07;;;;;;;18.50;15.27;;;;;;;;;;10286162;28;20073;-67
2022/11/10 06:49:24;;;;;;;35.90;24.17;;;;;;;;;;10276335;28;20084;-65
2022/11/10 06:54:43;;;;;;;22.27;17.05;;;;;;;;;;10279213;28;20510;-66
2022/11/10 07:00:00;;;;;;;43.60;32.47;;;;;;;;;;10285218;28;20084;-64
2022/11/10 07:05:17;;;;;;;45.65;24.83;;;;;;;;;;10284170;28;20049;-64
2022/11/10 07:10:35;;;;;;;33.00;24.17;;;;;;;;;;10278852;28;20077;-65
2022/11/10 07:15:52;;;;;;;50.70;26.75;;;;;;;;;;10267866;28;20088;-67
2022/11/10 07:21:08;;;;;;;37.28;22.90;;;;;;;;;;10277407;28;20073;-65
2022/11/10 07:26:26;;;;;;;33.88;23.17;;;;;;;;;;10277312;28;20076;-65
2022/11/10 07:31:43;;;;;;;48.45;35.83;;;;;;;;;;10258362;28;20141;-66
2022/11/10 07:37:00;;;;;;;54.65;41.70;;;;;;;;;;10268967;28;20528;-66
2022/11/10 07:42:18;;;;;;;60.40;48.15;;;;;;;;;;10277839;28;20049;-65
2022/11/10 07:47:34;;;;;;;55.50;40.30;;;;;;;;;;10277037;28;20076;-66
2022/11/10 07:52:51;;;;;;;44.58;30.55;;;;;;;;;;10271042;28;20046;-66
2022/11/10 07:58:09;;;;;;;55.17;40.80;;;;;;;;;;10275514;28;20506;-65
2022/11/10 08:03:25;;;;;;;35.72;24.95;;;;;;;;;;10274417;28;20518;-64
2022/11/10 08:08:42;;;;;;;34.25;22.70;;;;;;;;;;10274031;28;20088;-65
2022/11/10 08:14:00;;;;;;;36.13;21.90;;;;;;;;;;10274022;28;20048;-65
2022/11/10 08:19:17;;;;;;;29.10;21.80;;;;;;;;;;10282463;28;20522;-65
2022/11/10 08:24:34;;;;;;;35.70;26.45;;;;;;;;;;10273203;28;20045;-65
2022/11/10 08:29:52;;;;;;;31.77;22.17;;;;;;;;;;10276864;28;20490;-63
2022/11/10 08:35:09;;;;;;;29.65;21.35;;;;;;;;;;10282113;28;20072;-65
2022/11/10 08:40:27;;;;;;;42.45;26.77;;;;;;;;;;10280632;28;20076;-63
2022/11/10 08:45:45;;;;;;;28.15;20.85;;;;;;;;;;10254628;28;20045;-63
2022/11/10 08:51:02;;;;;;;32.85;24.50;;;;;;;;;;10256750;28;20061;-63
2022/11/10 08:56:19;;;;;;;26.38;21.70;;;;;;;;;;10263387;28;20435;-62
2022/11/10 09:01:37;;;;;;;27.25;20.58;;;;;;;;;;10274499;28;20072;-64
2022/11/10 09:06:56;;;;;;;52.70;38.55;;;;;;;;;;10259083;28;20442;-63
2022/11/10 09:12:13;;;;;;;25.67;21.25;;;;;;;;;;10239152;28;20054;-64
2022/11/10 09:17:32;;;;;;;26.02;23.02;;;;;;;;;;10252538;28;20081;-64
2022/11/10 09:22:49;;;;;;;27.30;19.85;;;;;;;;;;10236238;28;20084;-65
2022/11/10 09:28:06;;;;;;;34.47;20.63;;;;;;;;;;10266615;28;20069;-65
2022/11/10 09:33:24;;;;;;;33.03;24.40;;;;;;;;;;10255696;28;20049;-64
2022/11/10 09:38:41;;;;;;;33.28;22.80;;;;;;;;;;10237928;28;20084;-62
2022/11/10 09:44:02;;;;;;;32.65;21.90;;;;;;;;;;10247911;28;20049;-64
2022/11/10 09:49:25;;;;;;;28.33;20.45;;;;;;;;;;10247923;28;20076;-63
2022/11/10 09:54:43;;;;;;;20.67;16.50;;;;;;;;;;10272596;28;20049;-64
2022/11/10 09:59:59;;;;;;;23.15;18.23;;;;;;;;;;10258178;28;20080;-64
2022/11/10 10:05:40;;;;;;;27.55;18.83;;;;;;;;;;10254253;28;20081;-63
2022/11/10 10:11:06;;;;;;;21.95;17.17;;;;;;;;;;10243730;28;20057;-64
2022/11/10 10:16:30;;;;;;;25.45;18.13;;;;;;;;;;10253870;28;20045;-64
2022/11/10 10:21:53;;;;;;;22.13;16.83;;;;;;;;;;10263104;28;20072;-63
2022/11/10 10:27:17;;;;;;;21.25;18.67;;;;;;;;;;10273493;28;20085;-65
2022/11/10 10:32:34;;;;;;;27.15;19.95;;;;;;;;;;10272002;28;20466;-63
2022/11/10 10:37:52;;;;;;;19.67;17.02;;;;;;;;;;10265245;28;20046;-64
2022/11/10 10:43:10;;;;;;;19.05;16.55;;;;;;;;;;10269723;28;20084;-64
2022/11/10 10:48:28;;;;;;;32.28;24.15;;;;;;;;;;10252739;28;20437;-64
2022/11/10 10:53:45;;;;;;;23.42;18.05;;;;;;;;;;10235059;28;20037;-64
2022/11/10 10:59:04;;;;;;;19.83;17.15;;;;;;;;;;10268678;28;20088;-63
2022/11/10 11:04:29;;;;;;;21.73;19.33;;;;;;;;;;10279507;28;20072;-63
2022/11/10 11:09:46;;;;;;;19.13;17.10;;;;;;;;;;10279495;28;20041;-65
2022/11/10 11:15:21;;;;;;;31.02;21.77;;;;;;;;;;10284331;28;20072;-65
2022/11/10 11:20:43;;;;;;;30.15;19.10;;;;;;;;;;10278011;28;20514;-63
2022/11/10 11:26:09;;;;;;;26.50;18.95;;;;;;;;;;10261220;28;20510;-64
2022/11/10 11:31:32;;;;;;;29.05;18.48;;;;;;;;;;10249787;28;20076;-64
2022/11/10 11:36:57;;;;;;;27.55;19.08;;;;;;;;;;10275657;28;20057;-64
2022/11/10 11:42:18;;;;;;;25.70;19.20;;;;;;;;;;10257847;28;20076;-65
2022/11/10 11:47:42;;;;;;;26.25;20.65;;;;;;;;;;10250996;28;20443;-65
2022/11/10 11:53:05;;;;;;;20.48;18.23;;;;;;;;;;10270017;28;20053;-64
2022/11/10 11:58:29;;;;;;;25.77;20.00;;;;;;;;;;10273702;28;20460;-63
2022/11/10 12:03:51;;;;;;;23.45;20.23;;;;;;;;;;10259844;28;20061;-64
2022/11/10 12:09:13;;;;;;;25.65;20.38;;;;;;;;;;10261435;28;20068;-64
2022/11/10 12:14:36;;;;;;;29.45;20.15;;;;;;;;;;10280058;28;20451;-64
2022/11/10 12:19:57;;;;;;;28.63;22.08;;;;;;;;;;10275742;28;20505;-65
2022/11/10 12:25:19;;;;;;;24.90;19.23;;;;;;;;;;10259805;28;20045;-65
2022/11/10 12:30:36;;;;;;;27.30;20.48;;;;;;;;;;10257498;28;20072;-64
2022/11/10 12:35:53;;;;;;;27.42;20.67;;;;;;;;;;10279220;28;20458;-64
2022/11/10 12:41:14;;;;;;;23.00;19.52;;;;;;;;;;10278279;28;20731;-64
2022/11/10 12:46:31;;;;;;;27.75;21.27;;;;;;;;;;10273041;28;20518;-65
2022/11/10 12:51:51;;;;;;;27.63;19.88;;;;;;;;;;10260649;28;20080;-64
2022/11/10 12:57:12;;;;;;;26.27;19.85;;;;;;;;;;10240407;28;20077;-63
2022/11/10 13:02:30;;;;;;;25.02;18.88;;;;;;;;;;10251950;28;20616;-64
2022/11/10 13:07:48;;;;;;;24.85;17.55;;;;;;;;;;10270792;28;20080;-63
2022/11/10 13:13:13;;;;;;;21.17;17.27;;;;;;;;;;10272674;28;20081;-63
2022/11/10 13:18:57;;;;;;;24.90;18.05;;;;;;;;;;10276816;28;20410;-63
2022/11/10 13:24:22;;;;;;;25.15;19.13;;;;;;;;;;10281516;28;20076;-63
2022/11/10 13:29:54;;;;;;;24.27;17.85;;;;;;;;;;10272719;28;20076;-63
2022/11/10 13:35:44;;;;;;;21.55;15.32;;;;;;;;;;10276619;28;20064;-64
2022/11/10 13:41:20;;;;;;;28.27;19.33;;;;;;;;;;10191039;28;20081;-64
2022/11/10 13:46:44;;;;;;;31.63;17.75;;;;;;;;;;10264217;28;20499;-64
2022/11/10 13:52:06;;;;;;;26.02;19.63;;;;;;;;;;10270196;28;20133;-64
2022/11/10 13:57:27;;;;;;;33.13;23.40;;;;;;;;;;10274869;28;20068;-64
2022/11/10 14:02:50;;;;;;;29.00;23.75;;;;;;;;;;10266256;28;20077;-63
2022/11/10 14:08:11;;;;;;;29.80;24.60;;;;;;;;;;10267042;28;20046;-63
2022/11/10 14:13:32;;;;;;;34.63;30.08;;;;;;;;;;10270225;28;20121;-62
2022/11/10 14:18:54;;;;;;;52.72;43.33;;;;;;;;;;10267904;28;20041;-62
2022/11/10 14:24:14;;;;;;;63.40;49.65;;;;;;;;;;10278645;28;20140;-64
2022/11/10 14:29:33;;;;;;;45.13;30.83;;;;;;;;;;10280270;28;20049;-64
2022/11/10 14:34:52;;;;;;;32.67;23.85;;;;;;;;;;10272955;28;20418;-64
2022/11/10 14:40:15;;;;;;;33.78;20.77;;;;;;;;;;10282694;28;20084;-64
2022/11/10 14:45:32;;;;;;;35.92;23.65;;;;;;;;;;10273626;28;20085;-64
2022/11/10 14:50:50;;;;;;;35.05;26.75;;;;;;;;;;10262324;28;20053;-64
2022/11/10 14:56:14;;;;;;;32.38;25.20;;;;;;;;;;10266683;28;20071;-64
2022/11/10 15:01:33;;;;;;;32.97;25.55;;;;;;;;;;10267051;28;20114;-64
2022/11/10 15:06:52;;;;;;;33.95;27.00;;;;;;;;;;10260123;28;20049;-64
2022/11/10 15:12:19;;;;;;;40.35;26.40;;;;;;;;;;10257218;28;20037;-62
2022/11/10 15:17:46;;;;;;;46.38;27.67;;;;;;;;;;10273121;28;20076;-63
2022/11/10 15:23:05;;;;;;;34.72;28.33;;;;;;;;;;10273078;28;20092;-63
2022/11/10 15:28:23;;;;;;;32.30;25.10;;;;;;;;;;10276739;28;20049;-63
2022/11/10 15:33:45;;;;;;;33.25;26.48;;;;;;;;;;10275834;28;20044;-62
2022/11/10 15:39:05;;;;;;;31.60;23.92;;;;;;;;;;10274973;28;20806;-63
2022/11/10 15:44:23;;;;;;;49.58;32.97;;;;;;;;;;10280158;28;20073;-63
2022/11/10 15:49:40;;;;;;;69.22;48.63;;;;;;;;;;10276098;28;20152;-63
2022/11/10 15:54:58;;;;;;;61.08;43.45;;;;;;;;;;10274753;28;20762;-64
2022/11/10 16:00:15;;;;;;;65.07;43.88;;;;;;;;;;10283074;28;20076;-63
2022/11/10 16:05:32;;;;;;;41.38;30.65;;;;;;;;;;10273799;28;20400;-64
2022/11/10 16:10:51;;;;;;;39.45;33.40;;;;;;;;;;10269183;28;20072;-63
2022/11/10 16:16:10;;;;;;;42.97;28.92;;;;;;;;;;10279898;28;20080;-64
2022/11/10 16:21:28;;;;;;;42.53;31.40;;;;;;;;;;10278056;28;20542;-63
2022/11/10 16:26:46;;;;;;;38.72;30.92;;;;;;;;;;10278393;28;20076;-63
2022/11/10 16:32:03;;;;;;;38.22;28.67;;;;;;;;;;10277050;28;20077;-63
2022/11/10 16:37:20;;;;;;;40.28;28.77;;;;;;;;;;10277331;28;20510;-63
2022/11/10 16:42:38;;;;;;;36.60;27.95;;;;;;;;;;10275594;28;20092;-64
2022/11/10 16:47:54;;;;;;;38.08;29.50;;;;;;;;;;10269690;28;20053;-64
2022/11/10 16:53:13;;;;;;;39.65;29.30;;;;;;;;;;10272704;28;20065;-62
2022/11/10 16:58:31;;;;;;;37.17;29.85;;;;;;;;;;10274630;28;20069;-63
2022/11/10 17:03:49;;;;;;;35.72;28.13;;;;;;;;;;10271524;28;20080;-63
2022/11/10 17:09:07;;;;;;;36.50;27.90;;;;;;;;;;10283569;28;20076;-63
2022/11/10 17:14:25;;;;;;;53.65;39.55;;;;;;;;;;10280496;28;20529;-64
2022/11/10 17:19:42;;;;;;;48.05;37.40;;;;;;;;;;10269715;28;20088;-64
2022/11/10 17:24:59;;;;;;;47.10;36.67;;;;;;;;;;10276716;28;20478;-64
2022/11/10 17:30:17;;;;;;;41.92;34.92;;;;;;;;;;10271094;28;20488;-64
2022/11/10 17:35:36;;;;;;;39.60;32.53;;;;;;;;;;10254209;28;20080;-65
2022/11/10 17:40:56;;;;;;;43.08;32.72;;;;;;;;;;10241039;28;20081;-63
2022/11/10 17:46:14;;;;;;;46.67;37.65;;;;;;;;;;10261425;28;20080;-64
2022/11/10 17:51:32;;;;;;;48.47;38.47;;;;;;;;;;10274649;28;20072;-63
2022/11/10 17:56:49;;;;;;;60.65;44.50;;;;;;;;;;10273747;28;20073;-64
2022/11/10 18:02:08;;;;;;;55.42;40.95;;;;;;;;;;10272330;28;20084;-65
2022/11/10 18:07:25;;;;;;;100.60;79.88;;;;;;;;;;10272919;28;20084;-64
2022/11/10 18:12:42;;;;;;;66.15;49.10;;;;;;;;;;10253608;28;20052;-65
2022/11/10 18:18:00;;;;;;;54.92;43.92;;;;;;;;;;10251211;28;20078;-65
2022/11/10 18:23:16;;;;;;;54.47;43.72;;;;;;;;;;10257391;28;20085;-65
2022/11/10 18:28:34;;;;;;;49.05;33.83;;;;;;;;;;10244410;28;20443;-64
2022/11/10 18:33:54;;;;;;;36.78;28.27;;;;;;;;;;10242069;28;20541;-63
2022/11/10 18:39:11;;;;;;;33.70;26.77;;;;;;;;;;10285149;28;20068;-64
2022/11/10 18:44:28;;;;;;;48.15;30.98;;;;;;;;;;10281888;28;20314;-63
2022/11/10 18:49:46;;;;;;;33.72;24.88;;;;;;;;;;10280272;28;20052;-62
2022/11/10 18:55:03;;;;;;;33.67;25.08;;;;;;;;;;10286563;28;20077;-64
2022/11/10 19:00:20;;;;;;;34.38;24.80;;;;;;;;;;10284036;28;20513;-63
2022/11/10 19:05:38;;;;;;;40.67;26.73;;;;;;;;;;10282524;28;20462;-64
2022/11/10 19:10:55;;;;;;;43.90;28.83;;;;;;;;;;10271507;28;20049;-64
2022/11/10 19:16:13;;;;;;;32.47;24.83;;;;;;;;;;10281337;28;20445;-64
2022/11/10 19:21:31;;;;;;;35.38;23.88;;;;;;;;;;10280943;28;20080;-64
2022/11/10 19:26:49;;;;;;;45.63;32.35;;;;;;;;;;10279081;28;20060;-65
2022/11/10 19:32:06;;;;;;;32.72;27.60;;;;;;;;;;10278076;28;20080;-64
2022/11/10 19:37:24;;;;;;;28.67;25.10;;;;;;;;;;10279173;28;20084;-65
2022/11/10 19:42:47;;;;;;;32.78;23.90;;;;;;;;;;10271874;28;20084;-65
2022/11/10 19:48:04;;;;;;;30.60;23.80;;;;;;;;;;10272446;28;20049;-65
2022/11/10 19:53:23;;;;;;;37.70;28.10;;;;;;;;;;10274978;28;20080;-65
2022/11/10 19:58:41;;;;;;;34.20;27.83;;;;;;;;;;10274624;28;20077;-64
2022/11/10 20:03:59;;;;;;;40.88;30.83;;;;;;;;;;10270276;28;20096;-64
2022/11/10 20:09:17;;;;;;;32.25;28.15;;;;;;;;;;10283157;28;20072;-63
2022/11/10 20:14:33;;;;;;;35.00;27.02;;;;;;;;;;10284023;28;20076;-65
2022/11/10 20:19:50;;;;;;;39.67;26.95;;;;;;;;;;10276965;28;20076;-64
2022/11/10 20:25:08;;;;;;;41.40;31.33;;;;;;;;;;10278527;28;20072;-64
2022/11/10 20:30:25;;;;;;;34.00;26.25;;;;;;;;;;10274627;28;20455;-65
2022/11/10 20:35:42;;;;;;;39.53;27.65;;;;;;;;;;10280760;28;20052;-66
2022/11/10 20:41:05;;;;;;;31.23;24.92;;;;;;;;;;10279303;28;20080;-65
2022/11/10 20:46:22;;;;;;;32.75;25.25;;;;;;;;;;10275343;28;20514;-64
2022/11/10 20:51:59;;;;;;;34.55;25.10;;;;;;;;;;10272036;28;20084;-64
2022/11/10 20:57:17;;;;;;;36.72;26.98;;;;;;;;;;10266183;28;20068;-64
2022/11/10 21:02:34;;;;;;;31.20;26.67;;;;;;;;;;10273743;28;20076;-64
2022/11/10 21:07:51;;;;;;;32.25;26.80;;;;;;;;;;10273219;28;20081;-64
2022/11/10 21:13:09;;;;;;;32.97;26.08;;;;;;;;;;10244171;28;20045;-65
2022/11/10 21:18:28;;;;;;;34.15;26.20;;;;;;;;;;10237581;28;20042;-65
2022/11/10 21:23:44;;;;;;;31.70;26.35;;;;;;;;;;10246233;28;20080;-65
2022/11/10 21:29:03;;;;;;;40.10;28.35;;;;;;;;;;10238407;28;20529;-63
2022/11/10 21:34:20;;;;;;;34.38;28.40;;;;;;;;;;10277006;28;20084;-64
2022/11/10 21:39:37;;;;;;;34.58;28.63;;;;;;;;;;10284256;28;20076;-64
2022/11/10 21:44:55;;;;;;;41.40;27.30;;;;;;;;;;10255048;28;20088;-65
2022/11/10 21:50:12;;;;;;;35.70;28.77;;;;;;;;;;10251804;28;20499;-65
2022/11/10 21:55:29;;;;;;;33.85;26.00;;;;;;;;;;10267356;28;20542;-64
2022/11/10 22:00:47;;;;;;;38.05;28.45;;;;;;;;;;10263618;28;20049;-64
2022/11/10 22:06:04;;;;;;;38.95;26.88;;;;;;;;;;10275319;28;20080;-65
2022/11/10 22:22:31;;;;;;;31.25;26.17;;;;;;;;;;10263000;28;20133;-65
2022/11/10 22:27:49;;;;;;;37.40;27.42;;;;;;;;;;10261729;28;20080;-65
2022/11/10 22:38:39;;;;;;;33.30;26.70;;;;;;;;;;10265970;28;20084;-64
2022/11/10 22:44:05;;;;;;;34.38;27.75;;;;;;;;;;10265264;28;20420;-66
2022/11/10 22:49:24;;;;;;;34.40;28.45;;;;;;;;;;10280009;28;20148;-65
2022/11/10 22:54:40;;;;;;;45.25;28.77;;;;;;;;;;10257989;28;20049;-65
2022/11/10 22:59:57;;;;;;;34.83;28.52;;;;;;;;;;10246358;28;20061;-65
2022/11/10 23:05:15;;;;;;;39.38;29.27;;;;;;;;;;10275308;28;20073;-65
2022/11/10 23:10:31;;;;;;;38.70;28.77;;;;;;;;;;10284279;28;20077;-64
2022/11/10 23:15:50;;;;;;;36.35;29.23;;;;;;;;;;10270552;28;20080;-64
2022/11/10 23:21:10;;;;;;;43.90;28.92;;;;;;;;;;10282701;28;20084;-64
2022/11/10 23:26:28;;;;;;;37.47;28.73;;;;;;;;;;10280241;28;20073;-65
2022/11/10 23:31:46;;;;;;;43.72;31.60;;;;;;;;;;10280199;28;20076;-65
2022/11/10 23:37:04;;;;;;;42.60;30.25;;;;;;;;;;10278567;28;20463;-64
2022/11/10 23:42:21;;;;;;;41.03;30.10;;;;;;;;;;10278626;28;20080;-64
2022/11/10 23:47:37;;;;;;;40.17;29.13;;;;;;;;;;10273621;28;20072;-65
2022/11/10 23:52:56;;;;;;;40.55;30.10;;;;;;;;;;10271989;28;20045;-65
2022/11/10 23:58:12;;;;;;;37.50;30.17;;;;;;;;;;10272964;28;20072;-64
